Time;durP1;ratioP1;P1;durP2;ratioP2;P2;SDS_P1;SDS_P2;PMS_P1;PMS_P2;Temp;Humidity;BMP_temperature;BMP_pressure;BME280_temperature;BME280_humidity;BME280_pressure;Samples;Min_cycle;Max_cycle;Signal;HPM_P1;HPM_P2
2021/03/28 00:01:00;;;;;;;7.38;4.22;;;;;;;1.81;98.71;101833.91;5012535;28;20046;-50
2021/03/28 00:03:57;;;;;;;6.97;4.03;;;;;;;1.76;99.49;101829.38;5009721;28;20049;-47
2021/03/28 00:06:29;;;;;;;5.93;3.92;;;;;;;1.73;99.04;101823.19;4998913;28;20523;-49
2021/03/28 00:09:13;;;;;;;10.13;4.55;;;;;;;1.69;99.45;101826.25;5009819;28;20515;-52
2021/03/28 00:12:04;;;;;;;8.82;4.40;;;;;;;1.73;99.13;101833.31;5015135;28;20045;-54
2021/03/28 00:14:42;;;;;;;10.00;4.18;;;;;;;1.71;99.14;101832.28;5009272;28;20052;-49
2021/03/28 00:17:21;;;;;;;10.10;5.03;;;;;;;1.69;99.04;101827.13;4990145;28;20056;-51
2021/03/28 00:20:10;;;;;;;6.60;4.22;;;;;;;1.57;99.76;101833.69;5008406;28;20054;-51
2021/03/28 00:22:49;;;;;;;9.90;4.50;;;;;;;1.65;99.88;101829.28;5011238;28;20045;-46
2021/03/28 00:25:34;;;;;;;10.35;5.25;;;;;;;1.58;99.87;101829.56;5011952;28;20049;-55
2021/03/28 00:28:06;;;;;;;8.38;4.18;;;;;;;1.63;99.48;101838.38;5013344;28;20908;-51
2021/03/28 00:30:41;;;;;;;8.63;4.00;;;;;;;1.58;99.78;101837.16;5011922;28;20068;-53
2021/03/28 00:33:07;;;;;;;12.75;4.80;;;;;;;1.55;100.00;101831.84;5014659;28;20044;-50
2021/03/28 00:36:01;;;;;;;8.88;4.57;;;;;;;1.62;99.81;101837.50;5015356;28;20431;-50
2021/03/28 00:38:48;;;;;;;6.93;4.13;;;;;;;1.57;99.75;101833.69;5014234;28;20057;-46
2021/03/28 00:41:33;;;;;;;;;;;;;;;1.58;99.97;101838.03;5004581;28;20126;-49
2021/03/28 00:44:16;;;;;;;10.35;4.55;;;;;;;1.57;100.00;101837.88;5003545;28;19925;-46
2021/03/28 00:46:54;;;;;;;9.90;4.53;;;;;;;1.58;100.00;101827.03;5007298;28;20049;-49
2021/03/28 00:49:40;;;;;;;6.63;4.15;;;;;;;1.58;100.00;101827.91;5015400;28;20044;-47
2021/03/28 00:52:13;;;;;;;9.88;4.97;;;;;;;1.56;99.68;101831.94;5013342;28;20045;-48
2021/03/28 00:54:45;;;;;;;10.45;4.65;;;;;;;1.56;99.92;101836.13;5011887;28;20054;-54
2021/03/28 00:57:32;;;;;;;7.30;4.13;;;;;;;1.56;99.93;101833.59;5013155;28;20457;-48
2021/03/28 01:00:11;;;;;;;11.70;4.20;;;;;;;1.54;99.77;101830.97;5010392;28;20050;-48
2021/03/28 01:02:52;;;;;;;18.17;5.20;;;;;;;1.58;99.86;101835.50;5010044;28;20053;-50
2021/03/28 01:05:35;;;;;;;7.78;4.57;;;;;;;1.59;99.82;101842.31;5007868;28;20049;-52
2021/03/28 01:08:18;;;;;;;8.05;3.75;;;;;;;1.55;99.54;101846.97;5012854;28;20428;-48
2021/03/28 01:11:02;;;;;;;7.50;4.05;;;;;;;1.47;99.83;101849.75;5007233;28;20076;-53
2021/03/28 01:14:00;;;;;;;6.43;3.85;;;;;;;1.41;100.00;101845.88;5010166;28;20061;-54
2021/03/28 01:16:45;;;;;;;10.57;5.15;;;;;;;1.48;100.00;101845.63;5008640;28;20049;-53
2021/03/28 01:19:35;;;;;;;12.98;4.60;;;;;;;1.48;100.00;101850.66;5008848;28;20061;-50
2021/03/28 01:22:29;;;;;;;11.48;4.22;;;;;;;1.45;100.00;101848.75;5013907;28;20045;-52
2021/03/28 01:25:24;;;;;;;11.45;4.30;;;;;;;1.45;100.00;101853.81;5001603;28;20057;-52
2021/03/28 01:27:57;;;;;;;7.60;4.03;;;;;;;1.40;100.00;101851.69;4999471;28;20050;-48
2021/03/28 01:30:38;;;;;;;6.30;4.15;;;;;;;1.43;100.00;101849.38;5012125;28;20060;-51
2021/03/28 01:33:16;;;;;;;10.48;4.13;;;;;;;1.42;100.00;101850.16;5011889;28;20061;-51
2021/03/28 01:36:19;;;;;;;7.63;4.68;;;;;;;1.39;100.00;101865.06;5007253;28;20049;-48
2021/03/28 01:39:25;;;;;;;11.18;4.03;;;;;;;1.42;100.00;101866.16;4998258;28;20065;-52
2021/03/28 01:41:59;;;;;;;10.48;4.63;;;;;;;1.41;100.00;101863.53;4988285;28;20494;-47
2021/03/28 01:44:33;;;;;;;10.80;4.63;;;;;;;1.44;100.00;101866.31;5012618;28;20060;-49
2021/03/28 01:47:44;;;;;;;7.38;4.18;;;;;;;1.38;100.00;101865.78;5011092;28;20073;-52
2021/03/28 01:50:22;;;;;;;10.40;5.05;;;;;;;1.36;100.00;101860.63;4949607;28;20058;-46
2021/03/28 01:53:26;;;;;;;9.18;4.32;;;;;;;1.35;100.00;101866.44;5006768;28;20075;-51
2021/03/28 01:56:03;;;;;;;7.93;3.95;;;;;;;1.32;100.00;101870.34;5010379;28;20081;-46
2021/03/28 01:58:53;;;;;;;12.15;4.82;;;;;;;1.40;100.00;101869.34;5013437;28;20169;-48
2021/03/28 02:02:07;;;;;;;8.57;4.60;;;;;;;1.39;100.00;101870.13;5007116;28;20055;-48
2021/03/28 02:05:03;;;;;;;15.18;5.20;;;;;;;1.28;100.00;101860.00;5005027;28;20049;-47
2021/03/28 02:07:48;;;;;;;10.43;5.35;;;;;;;1.34;100.00;101866.31;5007705;28;20706;-52
2021/03/28 02:10:45;;;;;;;9.65;4.75;;;;;;;1.31;100.00;101872.00;5007007;28;20567;-47
2021/03/28 02:13:50;;;;;;;12.85;5.28;;;;;;;1.29;100.00;101863.41;5016411;28;20048;-46
2021/03/28 02:16:32;;;;;;;8.55;5.00;;;;;;;1.36;100.00;101865.69;4985445;28;20049;-52
2021/03/28 02:19:07;;;;;;;13.65;5.32;;;;;;;1.34;100.00;101858.72;5010105;28;20916;-48
2021/03/28 02:21:54;;;;;;;10.55;4.80;;;;;;;1.35;100.00;101863.06;5011781;28;20045;-49
2021/03/28 02:24:23;;;;;;;10.80;5.13;;;;;;;1.30;100.00;101861.78;5012154;28;20042;-48
2021/03/28 02:27:12;;;;;;;11.38;5.60;;;;;;;1.36;100.00;101862.28;5014423;28;20535;-51
2021/03/28 02:30:05;;;;;;;10.48;5.03;;;;;;;1.33;100.00;101862.91;5013636;28;20050;-50
2021/03/28 02:32:59;;;;;;;13.52;5.53;;;;;;;1.35;100.00;101860.53;5012605;28;20049;-48
2021/03/28 02:35:45;;;;;;;11.30;4.85;;;;;;;1.31;100.00;101858.50;5002331;28;20068;-48
2021/03/28 02:38:49;;;;;;;10.27;4.90;;;;;;;1.31;100.00;101863.56;5015871;28;20065;-51
2021/03/28 02:41:47;;;;;;;11.68;5.13;;;;;;;1.26;100.00;101863.19;5009455;28;20635;-47
2021/03/28 02:44:23;;;;;;;9.98;5.68;;;;;;;1.24;100.00;101863.03;4982606;28;20132;-49
2021/03/28 02:46:57;;;;;;;16.42;6.03;;;;;;;1.17;100.00;101864.94;5010936;28;20046;-49
2021/03/28 02:49:48;;;;;;;9.60;4.72;;;;;;;1.23;100.00;101862.91;5014864;28;20046;-47
2021/03/28 02:52:40;;;;;;;12.88;5.72;;;;;;;1.22;100.00;101872.13;5007247;28;20052;-47
2021/03/28 02:55:31;;;;;;;11.07;5.25;;;;;;;1.22;100.00;101879.69;5016533;28;20069;-48
2021/03/28 02:58:15;;;;;;;8.35;5.18;;;;;;;1.19;100.00;101876.91;5011601;28;20053;-52
2021/03/28 03:01:03;;;;;;;8.73;5.18;;;;;;;1.19;100.00;101879.44;5010677;28;20046;-49
2021/03/28 03:03:57;;;;;;;16.92;5.65;;;;;;;1.20;100.00;101886.28;5011476;28;20045;-52
2021/03/28 03:06:40;;;;;;;12.57;6.50;;;;;;;1.13;100.00;101886.50;5012993;28;20061;-48
2021/03/28 03:09:20;;;;;;;11.13;5.10;;;;;;;1.15;100.00;101884.97;5013963;28;20050;-46
2021/03/28 03:12:05;;;;;;;11.35;6.25;;;;;;;1.18;99.85;101891.94;5013795;28;20042;-51
2021/03/28 03:14:37;;;;;;;11.95;5.53;;;;;;;1.13;99.78;101894.06;5013070;28;20045;-49
2021/03/28 03:17:06;;;;;;;10.95;5.68;;;;;;;1.14;99.88;101889.91;5015372;28;20049;-48
2021/03/28 03:19:57;;;;;;;12.63;6.25;;;;;;;1.17;99.97;101888.53;5015817;28;20049;-45
2021/03/28 03:22:52;;;;;;;12.98;5.80;;;;;;;1.12;100.00;101884.75;5010369;28;20515;-49
2021/03/28 03:25:56;;;;;;;12.15;5.68;;;;;;;1.17;99.78;101886.00;5009525;28;20045;-51
2021/03/28 03:29:09;;;;;;;16.02;5.63;;;;;;;1.16;99.96;101896.88;5011880;28;20052;-49
2021/03/28 03:31:38;;;;;;;12.40;5.60;;;;;;;1.15;99.95;101900.13;5006170;28;20050;-49
2021/03/28 03:34:11;;;;;;;12.10;5.63;;;;;;;1.12;99.78;101902.41;5015049;28;20519;-47
2021/03/28 03:36:58;;;;;;;11.32;5.63;;;;;;;1.12;99.96;101907.44;5016795;28;20048;-48
2021/03/28 03:39:50;;;;;;;18.35;6.72;;;;;;;1.11;100.00;101904.78;5011297;28;20038;-49
2021/03/28 03:42:48;;;;;;;14.18;7.30;;;;;;;1.07;100.00;101911.22;5009773;28;20056;-45
2021/03/28 03:45:20;;;;;;;14.52;6.57;;;;;;;1.12;100.00;101914.13;5006299;28;20514;-53
2021/03/28 03:47:56;;;;;;;16.40;6.38;;;;;;;1.09;99.77;101914.75;5010166;28;20081;-49
2021/03/28 03:50:46;;;;;;;16.90;6.22;;;;;;;1.02;100.00;101920.94;5001677;28;20045;-50
2021/03/28 03:53:34;;;;;;;15.70;6.65;;;;;;;1.04;100.00;101925.22;5011646;28;20045;-47
2021/03/28 03:56:38;;;;;;;14.95;6.45;;;;;;;1.04;100.00;101931.16;5011932;28;20046;-51
2021/03/28 03:59:35;;;;;;;14.90;6.60;;;;;;;1.07;100.00;101922.97;5014523;28;20050;-50
2021/03/28 04:02:09;;;;;;;13.70;7.07;;;;;;;1.10;100.00;101925.72;5013416;28;20054;-48
2021/03/28 04:05:00;;;;;;;14.93;6.93;;;;;;;1.03;100.00;101926.88;5013229;28;20033;-51
2021/03/28 04:07:36;;;;;;;13.52;6.32;;;;;;;1.07;100.00;101928.00;5012513;28;20531;-51
2021/03/28 04:10:34;;;;;;;12.65;6.78;;;;;;;1.04;100.00;101925.22;5013154;28;20050;-50
2021/03/28 04:13:24;;;;;;;18.77;6.78;;;;;;;1.09;99.69;101926.50;5013667;28;20045;-50
2021/03/28 04:16:12;;;;;;;14.10;6.25;;;;;;;1.05;99.68;101927.88;5006978;28;20046;-48
2021/03/28 04:19:01;;;;;;;18.75;7.18;;;;;;;1.07;99.58;101923.84;5013158;28;20045;-53
2021/03/28 04:22:16;;;;;;;14.48;6.25;;;;;;;1.06;99.88;101926.22;5011819;28;20034;-51
2021/03/28 04:25:21;;;;;;;15.00;6.90;;;;;;;1.05;99.53;101925.34;5008282;28;20046;-48
2021/03/28 04:27:56;;;;;;;12.27;6.47;;;;;;;1.06;99.67;101926.22;5008841;28;20849;-46
2021/03/28 04:30:29;;;;;;;13.95;6.47;;;;;;;1.08;99.66;101927.25;5018070;28;20084;-51
2021/03/28 04:33:09;;;;;;;13.27;6.00;;;;;;;1.06;99.62;101928.75;5003160;28;20057;-47
2021/03/28 04:35:52;;;;;;;13.15;6.45;;;;;;;1.11;99.26;101914.88;5013364;28;20092;-51
2021/03/28 04:38:42;;;;;;;12.90;6.45;;;;;;;1.12;99.06;101926.75;5009819;28;20045;-47
2021/03/28 04:41:42;;;;;;;14.18;6.63;;;;;;;1.11;99.40;101924.97;5014404;28;20042;-48
2021/03/28 04:44:40;;;;;;;11.50;7.20;;;;;;;1.10;98.94;101921.56;5012936;28;20042;-52
2021/03/28 04:47:41;;;;;;;15.00;8.48;;;;;;;1.04;99.42;101925.22;5006401;28;20058;-52
2021/03/28 04:50:43;;;;;;;15.40;7.28;;;;;;;1.03;99.36;101931.91;5007110;28;20052;-47
2021/03/28 04:53:49;;;;;;;17.10;7.20;;;;;;;1.03;99.13;101934.44;5013267;28;20064;-45
2021/03/28 04:56:53;;;;;;;11.27;6.60;;;;;;;1.03;99.09;101929.38;5007739;28;20045;-49
2021/03/28 04:59:54;;;;;;;16.65;7.25;;;;;;;1.00;99.34;101931.66;5011688;28;20041;-47
2021/03/28 05:02:54;;;;;;;17.73;6.88;;;;;;;1.04;99.33;101941.25;5008790;28;20037;-48
2021/03/28 05:05:52;;;;;;;13.90;7.47;;;;;;;0.99;98.91;101939.97;5007428;28;20041;-47
2021/03/28 05:08:52;;;;;;;15.60;7.47;;;;;;;1.08;99.21;101939.88;5008279;28;20049;-51
2021/03/28 05:11:46;;;;;;;14.05;7.28;;;;;;;1.16;98.94;101939.75;5005061;28;20052;-47
2021/03/28 05:14:46;;;;;;;15.23;8.52;;;;;;;1.17;98.90;101945.69;5003649;28;20057;-53
2021/03/28 05:18:10;;;;;;;14.27;7.50;;;;;;;1.23;98.71;101946.19;5006438;28;20042;-52
2021/03/28 05:21:05;;;;;;;14.70;7.65;;;;;;;1.26;98.48;101947.31;5007116;28;20037;-47
2021/03/28 05:24:09;;;;;;;17.52;8.10;;;;;;;1.34;98.32;101949.56;5007474;28;20100;-51
2021/03/28 05:26:44;;;;;;;14.48;7.22;;;;;;;1.37;97.97;101942.28;5008133;28;20045;-48
2021/03/28 05:29:29;;;;;;;16.63;8.13;;;;;;;1.44;97.87;101945.44;5013724;28;20056;-50
2021/03/28 05:32:11;;;;;;;16.52;7.47;;;;;;;1.49;97.33;101951.75;5010538;28;20064;-52
2021/03/28 05:34:55;;;;;;;14.38;7.95;;;;;;;1.49;97.31;101956.78;5015122;28;20052;-48
2021/03/28 05:37:43;;;;;;;15.23;7.07;;;;;;;1.50;97.17;101950.97;5008591;28;20052;-48
2021/03/28 05:40:48;;;;;;;15.38;8.02;;;;;;;1.46;97.36;101954.00;5013781;28;20542;-50
2021/03/28 05:43:34;;;;;;;17.58;7.10;;;;;;;1.58;96.73;101951.63;5001201;28;20052;-48
2021/03/28 05:46:39;;;;;;;15.10;7.20;;;;;;;1.61;96.84;101953.50;5011233;28;20050;-51
2021/03/28 05:49:17;;;;;;;16.20;7.65;;;;;;;1.68;96.04;101943.16;4972551;28;20061;-47
2021/03/28 05:52:08;;;;;;;13.43;7.50;;;;;;;1.65;96.21;101948.81;5007328;28;20042;-46
2021/03/28 05:55:06;;;;;;;13.40;7.63;;;;;;;1.69;95.76;101942.38;5009318;28;20045;-49
2021/03/28 05:57:52;;;;;;;15.52;7.50;;;;;;;1.88;95.29;101954.84;5000572;28;20420;-53
2021/03/28 06:00:37;;;;;;;;;;;;;;;1.90;95.11;101949.19;5009481;28;20045;-49
2021/03/28 06:03:19;;;;;;;14.02;6.93;;;;;;;1.98;94.54;101950.66;5023506;23;19928;-59
2021/03/28 06:06:20;;;;;;;16.42;7.63;;;;;;;2.18;94.14;101954.81;5008558;28;20057;-58
2021/03/28 06:08:59;;;;;;;11.13;6.65;;;;;;;2.27;93.53;101947.94;5003376;28;20070;-58
2021/03/28 06:12:04;;;;;;;11.93;6.32;;;;;;;2.42;92.62;101944.84;5005599;28;20053;-58
2021/03/28 06:14:52;;;;;;;13.80;6.35;;;;;;;2.47;92.15;101949.50;4993636;28;20049;-55
2021/03/28 06:17:58;;;;;;;11.07;6.40;;;;;;;2.59;91.07;101953.75;4987491;28;20468;-55
2021/03/28 06:20:49;;;;;;;16.55;6.82;;;;;;;2.79;90.44;101953.66;4989506;28;20049;-55
2021/03/28 06:23:40;;;;;;;12.52;6.40;;;;;;;2.90;90.47;101967.13;4990192;28;20153;-57
2021/03/28 06:26:57;;;;;;;10.90;6.15;;;;;;;3.16;88.99;101964.94;4989838;28;20069;-56
2021/03/28 06:29:38;;;;;;;11.93;5.90;;;;;;;3.44;86.88;101972.09;4888963;28;20131;-56
2021/03/28 06:32:39;;;;;;;12.93;5.18;;;;;;;3.77;85.18;101966.09;4986364;28;20495;-51
2021/03/28 06:35:31;;;;;;;11.90;5.38;;;;;;;4.78;81.66;101969.13;4963408;28;20038;-53
2021/03/28 06:38:37;;;;;;;11.05;6.05;;;;;;;5.14;78.35;101967.38;4967954;28;20053;-54
2021/03/28 06:41:23;;;;;;;8.13;4.88;;;;;;;5.54;77.62;101975.97;4993271;28;20083;-52
2021/03/28 06:43:59;;;;;;;8.48;4.38;;;;;;;5.85;74.19;101980.56;4987820;28;20432;-50
2021/03/28 06:47:04;;;;;;;13.77;5.30;;;;;;;5.45;75.87;101979.56;4996263;28;20052;-51
2021/03/28 06:49:37;;;;;;;9.98;5.30;;;;;;;5.84;74.50;101974.59;4996547;28;20100;-52
2021/03/28 06:52:15;;;;;;;11.55;4.65;;;;;;;6.59;72.06;101981.09;4970878;28;20053;-48
2021/03/28 06:55:02;;;;;;;9.20;4.38;;;;;;;6.62;70.35;101978.75;4995009;28;20045;-50
2021/03/28 06:57:55;;;;;;;11.88;5.45;;;;;;;6.75;70.41;101981.25;4996935;28;20407;-52
2021/03/28 07:00:43;;;;;;;8.60;5.30;;;;;;;7.10;69.67;101972.34;4991953;28;20045;-51
2021/03/28 07:03:24;;;;;;;7.93;4.38;;;;;;;7.28;68.41;101975.97;4997374;28;20514;-51
2021/03/28 07:06:15;;;;;;;11.90;4.50;;;;;;;6.88;69.66;101986.28;4990959;28;20051;-51
2021/03/28 07:09:31;;;;;;;8.52;4.60;;;;;;;6.73;69.88;101987.03;4994146;28;20073;-52
2021/03/28 07:12:07;;;;;;;7.50;4.40;;;;;;;7.00;70.22;101976.00;5000876;28;20057;-51
2021/03/28 07:15:17;;;;;;;12.95;6.65;;;;;;;6.34;71.08;101978.69;5001308;28;20271;-53
2021/03/28 07:18:16;;;;;;;7.55;4.88;;;;;;;6.02;73.52;101976.63;4946752;28;20052;-49
2021/03/28 07:21:08;;;;;;;8.07;4.75;;;;;;;5.99;73.88;101968.78;4984502;28;20060;-53
2021/03/28 07:24:06;;;;;;;8.98;4.50;;;;;;;6.09;73.68;101968.56;4993911;28;20057;-54
2021/03/28 07:26:52;;;;;;;11.93;5.55;;;;;;;5.80;74.97;101967.53;5001541;28;20514;-51
2021/03/28 07:30:01;;;;;;;10.68;4.65;;;;;;;5.73;75.59;101962.88;5001813;28;20042;-50
2021/03/28 07:33:05;;;;;;;10.32;3.38;;;;;;;5.51;74.86;101969.84;4999659;28;20128;-52
2021/03/28 07:36:01;;;;;;;16.35;5.28;;;;;;;5.81;75.26;101969.31;5000231;28;20045;-47
2021/03/28 07:38:52;;;;;;;10.50;5.45;;;;;;;5.86;76.28;101973.03;4997323;28;20057;-52
2021/03/28 07:41:27;;;;;;;6.25;4.22;;;;;;;5.96;73.92;101976.19;4996255;28;20042;-50
2021/03/28 07:44:37;;;;;;;10.52;4.30;;;;;;;6.11;73.52;101970.44;4997322;28;20062;-49
2021/03/28 07:47:31;;;;;;;9.15;4.40;;;;;;;6.31;73.67;101970.84;4996155;28;20042;-46
2021/03/28 07:50:36;;;;;;;8.45;3.95;;;;;;;6.34;73.04;101977.00;4995595;28;20464;-53
2021/03/28 07:53:19;;;;;;;10.70;4.20;;;;;;;6.32;73.04;101976.00;4987341;28;20053;-53
2021/03/28 07:56:14;;;;;;;7.95;4.22;;;;;;;6.40;72.57;101983.25;4989947;28;20050;-48
2021/03/28 07:59:25;;;;;;;8.80;4.28;;;;;;;6.57;73.75;101975.91;4991531;28;20038;-50
2021/03/28 08:02:15;;;;;;;8.18;4.40;;;;;;;6.83;72.72;101981.72;4993536;28;20133;-49
2021/03/28 08:05:12;;;;;;;8.82;3.95;;;;;;;7.07;70.87;101980.69;4994631;28;20053;-51
2021/03/28 08:08:19;;;;;;;10.93;4.07;;;;;;;7.34;70.99;101988.19;4985180;28;20448;-52
2021/03/28 08:10:54;;;;;;;;;;;;;;;7.90;70.09;101983.88;4943092;28;20050;-47
2021/03/28 08:13:52;;;;;;;10.02;4.10;;;;;;;8.48;66.74;101988.84;4993649;28;19932;-53
2021/03/28 08:16:48;;;;;;;9.18;3.70;;;;;;;8.38;65.19;101989.13;4989063;28;20054;-48
2021/03/28 08:20:00;;;;;;;5.50;2.95;;;;;;;8.11;65.34;101996.09;4988156;28;20039;-52
2021/03/28 08:22:44;;;;;;;8.80;3.35;;;;;;;8.54;64.00;101989.16;4992504;28;20076;-52
2021/03/28 08:25:36;;;;;;;8.07;3.92;;;;;;;9.25;63.16;101987.84;4990773;28;20042;-51
2021/03/28 08:28:26;;;;;;;7.05;3.03;;;;;;;9.43;61.63;101992.22;4987938;28;20046;-53
2021/03/28 08:31:16;;;;;;;7.75;3.20;;;;;;;9.31;60.94;101988.16;4984603;28;20053;-53
2021/03/28 08:34:04;;;;;;;7.40;3.72;;;;;;;9.47;62.02;101997.47;4986888;28;20042;-49
2021/03/28 08:37:21;;;;;;;9.25;3.15;;;;;;;9.22;61.41;101978.31;4985525;28;20047;-51
2021/03/28 08:40:25;;;;;;;9.68;3.50;;;;;;;9.01;61.65;101980.63;4991044;28;20045;-47
2021/03/28 08:43:29;;;;;;;6.25;3.28;;;;;;;9.25;59.85;101993.81;4989859;28;20077;-53
2021/03/28 08:46:31;;;;;;;7.45;3.20;;;;;;;9.43;59.84;101988.78;4990217;28;20388;-52
2021/03/28 08:49:27;;;;;;;9.05;3.35;;;;;;;9.20;62.69;101987.59;4982287;28;20339;-53
2021/03/28 08:52:10;;;;;;;9.95;3.22;;;;;;;9.64;58.64;101987.28;4968308;28;20046;-51
2021/03/28 08:54:58;;;;;;;8.93;2.83;;;;;;;9.25;59.53;101995.50;4987459;28;20419;-50
2021/03/28 08:57:33;;;;;;;5.72;2.65;;;;;;;9.55;59.92;101991.06;4983256;28;20504;-46
2021/03/28 09:00:24;;;;;;;8.48;3.15;;;;;;;9.27;59.88;101988.78;4984207;28;20064;-50
2021/03/28 09:03:24;;;;;;;5.72;2.72;;;;;;;9.56;60.25;101990.25;4985497;28;20057;-48
2021/03/28 09:05:56;;;;;;;11.68;3.65;;;;;;;10.28;57.10;101986.16;4992572;28;20050;-50
2021/03/28 09:08:23;;;;;;;6.72;3.10;;;;;;;10.17;54.76;101985.63;4998163;28;20046;-50
2021/03/28 09:11:22;;;;;;;6.75;2.42;;;;;;;10.23;54.35;101985.03;4994082;28;20160;-47
2021/03/28 09:14:04;;;;;;;8.75;2.72;;;;;;;10.18;55.53;101984.81;4985901;28;20039;-51
2021/03/28 09:16:36;;;;;;;9.20;2.47;;;;;;;10.63;52.66;101983.59;4990373;28;20056;-53
2021/03/28 09:19:24;;;;;;;5.15;2.13;;;;;;;10.88;51.76;101979.56;4990593;28;20042;-51
2021/03/28 09:22:04;;;;;;;5.50;2.58;;;;;;;11.29;52.31;101985.66;4991260;28;20120;-52
2021/03/28 09:24:58;;;;;;;6.50;2.47;;;;;;;11.11;51.83;101978.03;4992802;28;20050;-49
2021/03/28 09:27:37;;;;;;;8.18;3.08;;;;;;;11.53;52.61;101973.88;4989765;28;20107;-52
2021/03/28 09:30:07;;;;;;;7.55;2.55;;;;;;;11.34;50.39;101981.59;4996032;28;20156;-50
2021/03/28 09:33:11;;;;;;;9.23;2.67;;;;;;;10.63;52.67;101970.78;4993392;28;20080;-50
2021/03/28 09:35:47;;;;;;;8.63;2.70;;;;;;;11.68;50.93;101981.34;4994543;28;20038;-52
2021/03/28 09:38:33;;;;;;;8.45;2.92;;;;;;;11.73;51.24;101967.88;4988458;28;20047;-47
2021/03/28 09:41:26;;;;;;;9.60;2.95;;;;;;;11.24;51.29;101976.88;4988490;28;20050;-49
2021/03/28 09:44:24;;;;;;;7.53;2.40;;;;;;;11.43;50.40;101974.31;4993434;28;20045;-54
2021/03/28 09:47:13;;;;;;;8.43;2.88;;;;;;;11.41;50.85;101966.53;4985988;28;20065;-51
2021/03/28 09:50:01;;;;;;;8.15;3.03;;;;;;;11.83;51.58;101965.72;4995793;28;20059;-51
2021/03/28 09:52:49;;;;;;;8.15;2.53;;;;;;;12.00;49.74;101961.28;4986947;28;20072;-54
2021/03/28 09:55:29;;;;;;;10.75;2.42;;;;;;;11.71;48.90;101964.38;4981176;28;20065;-52
2021/03/28 09:58:33;;;;;;;5.80;2.38;;;;;;;12.44;47.10;101958.78;4989891;28;20050;-54
2021/03/28 10:01:28;;;;;;;8.30;2.83;;;;;;;12.48;49.47;101952.06;4993638;28;20050;-52
2021/03/28 10:04:32;;;;;;;8.45;2.75;;;;;;;13.07;45.79;101958.53;4993296;28;20050;-54
2021/03/28 10:07:02;;;;;;;6.00;2.35;;;;;;;13.39;44.47;101954.53;4985445;28;20042;-54
2021/03/28 10:09:47;;;;;;;8.60;2.70;;;;;;;13.56;43.11;101973.13;4989826;28;20037;-54
2021/03/28 10:12:26;;;;;;;9.32;3.38;;;;;;;14.37;40.67;101970.59;4994105;28;20130;-54
2021/03/28 10:15:05;;;;;;;7.60;3.05;;;;;;;15.06;39.93;101969.19;4993981;28;20050;-49
2021/03/28 10:17:47;;;;;;;8.65;3.30;;;;;;;15.28;38.63;101963.78;4967045;28;20050;-49
2021/03/28 10:20:47;;;;;;;9.45;3.45;;;;;;;15.43;37.22;101965.91;4988395;28;20048;-52
2021/03/28 10:24:09;;;;;;;8.60;3.47;;;;;;;14.87;40.99;101970.38;4993891;28;20046;-51
2021/03/28 10:27:08;;;;;;;10.90;3.17;;;;;;;14.85;40.17;101967.78;4912789;28;20050;-53
2021/03/28 10:29:50;;;;;;;4.78;2.50;;;;;;;14.72;39.99;101963.09;4983020;28;20113;-54
2021/03/28 10:32:28;;;;;;;7.97;2.83;;;;;;;15.70;38.18;101960.63;4991399;28;20050;-52
2021/03/28 10:35:26;;;;;;;7.05;3.25;;;;;;;17.61;35.21;101971.56;4991875;28;20472;-53
2021/03/28 10:38:19;;;;;;;9.30;3.65;;;;;;;18.76;31.87;101969.91;4990488;28;20054;-52
2021/03/28 10:41:17;;;;;;;9.40;3.33;;;;;;;18.60;31.44;101969.69;4990142;28;20050;-52
2021/03/28 10:43:53;;;;;;;6.68;3.33;;;;;;;19.06;31.89;101958.16;4990146;28;20125;-51
2021/03/28 10:46:33;;;;;;;8.93;3.60;;;;;;;16.92;33.41;101966.00;4992405;28;20042;-52
2021/03/28 10:49:21;;;;;;;7.75;3.78;;;;;;;15.41;36.42;101959.84;4992809;28;20054;-49
2021/03/28 10:52:15;;;;;;;7.60;3.78;;;;;;;14.49;38.90;101959.84;4988788;28;20876;-51
2021/03/28 10:55:19;;;;;;;8.30;3.65;;;;;;;14.25;40.77;101959.94;4993859;28;20046;-51
2021/03/28 10:58:23;;;;;;;4.95;3.03;;;;;;;15.93;38.07;101956.88;4992265;28;20042;-50
2021/03/28 11:00:52;;;;;;;8.77;4.18;;;;;;;17.41;34.23;101951.38;4996523;28;20042;-54
2021/03/28 11:03:29;;;;;;;8.50;3.80;;;;;;;18.82;31.74;101964.81;5001299;28;20420;-52
2021/03/28 11:06:17;;;;;;;6.60;3.72;;;;;;;19.99;30.20;101953.84;4995930;28;20057;-55
2021/03/28 11:09:07;;;;;;;8.13;4.00;;;;;;;20.15;29.31;101959.13;4991905;28;20456;-50
2021/03/28 11:11:50;;;;;;;8.13;3.85;;;;;;;18.49;31.58;101967.81;4955134;28;20104;-51
2021/03/28 11:14:45;;;;;;;9.50;4.18;;;;;;;17.88;33.19;101953.06;4988297;28;20045;-53
2021/03/28 11:18:02;;;;;;;9.43;3.95;;;;;;;20.16;30.93;101948.75;4997765;28;20462;-52
2021/03/28 11:20:51;;;;;;;8.57;3.75;;;;;;;22.02;27.65;101960.56;4894296;29;20064;-53
2021/03/28 11:23:50;;;;;;;10.20;4.18;;;;;;;23.57;25.67;101943.34;4975417;28;20046;-55
2021/03/28 11:26:55;;;;;;;8.52;4.07;;;;;;;23.87;24.76;101957.06;4990644;28;20466;-55
2021/03/28 11:29:40;;;;;;;10.70;3.90;;;;;;;23.34;26.13;101956.59;4984545;28;20046;-53
2021/03/28 11:32:26;;;;;;;9.50;4.25;;;;;;;24.43;23.80;101954.78;4996864;28;20316;-54
2021/03/28 11:35:11;;;;;;;5.40;3.97;;;;;;;24.42;24.26;101951.28;4992463;28;20046;-53
2021/03/28 11:37:44;;;;;;;9.00;4.07;;;;;;;24.31;24.07;101946.16;4987371;28;20042;-51
2021/03/28 11:40:29;;;;;;;7.63;3.67;;;;;;;24.25;23.80;101943.56;4997209;28;20054;-49
2021/03/28 11:43:02;;;;;;;6.05;3.30;;;;;;;26.09;23.17;101949.66;4995478;28;20050;-51
2021/03/28 11:45:31;;;;;;;7.05;3.25;;;;;;;26.44;22.39;101950.78;4996041;28;20042;-53
2021/03/28 11:48:45;;;;;;;7.53;3.60;;;;;;;23.55;23.22;101936.38;4990046;28;20120;-50
2021/03/28 11:51:25;;;;;;;11.27;3.80;;;;;;;21.99;27.25;101935.34;4990226;28;20049;-51
2021/03/28 11:54:05;;;;;;;7.88;3.17;;;;;;;20.63;27.49;101929.94;4994461;28;20062;-54
2021/03/28 11:56:48;;;;;;;6.32;2.47;;;;;;;21.38;25.76;101939.72;4995133;28;20041;-50
2021/03/28 11:59:24;;;;;;;7.45;2.50;;;;;;;22.16;24.90;101932.72;4990067;28;20045;-54
2021/03/28 12:02:01;;;;;;;8.30;2.95;;;;;;;21.58;25.27;101927.53;4997570;28;20346;-54
2021/03/28 12:04:37;;;;;;;6.82;2.20;;;;;;;22.05;25.53;101926.66;4996186;28;20046;-53
2021/03/28 12:07:32;;;;;;;4.95;2.28;;;;;;;21.04;26.29;101929.22;4996183;28;20042;-51
2021/03/28 12:09:58;;;;;;;5.10;2.70;;;;;;;20.92;27.38;101921.34;4997486;28;20642;-53
2021/03/28 12:12:38;;;;;;;6.50;2.80;;;;;;;20.73;26.96;101931.72;4999565;28;20060;-52
2021/03/28 12:15:42;;;;;;;7.85;2.90;;;;;;;19.82;28.11;101925.09;4999440;28;20519;-53
2021/03/28 12:18:24;;;;;;;6.80;2.20;;;;;;;18.52;29.77;101921.13;4992177;28;20052;-52
2021/03/28 12:21:03;;;;;;;7.18;2.65;;;;;;;17.15;32.57;101909.50;4983872;28;20051;-51
2021/03/28 12:23:35;;;;;;;8.48;2.55;;;;;;;16.60;33.03;101907.53;4988883;28;20053;-47
2021/03/28 12:26:07;;;;;;;3.95;2.35;;;;;;;16.28;34.11;101908.59;4994937;28;20111;-51
2021/03/28 12:28:50;;;;;;;6.20;2.30;;;;;;;16.09;36.06;101909.03;4994674;28;20050;-53
2021/03/28 12:31:29;;;;;;;8.02;2.55;;;;;;;16.87;35.06;101908.13;4989113;28;20534;-51
2021/03/28 12:34:07;;;;;;;7.43;2.40;;;;;;;16.19;35.17;101898.06;4993710;28;20058;-55
2021/03/28 12:36:58;;;;;;;8.05;2.78;;;;;;;15.56;36.63;101892.22;4995206;28;20054;-52
2021/03/28 12:39:28;;;;;;;9.75;2.30;;;;;;;16.25;36.43;101899.91;4994208;28;20042;-53
2021/03/28 12:42:04;;;;;;;6.72;2.20;;;;;;;15.73;37.48;101880.63;4993946;28;20046;-49
2021/03/28 12:44:41;;;;;;;6.22;1.95;;;;;;;15.30;37.77;101882.13;4995318;28;20057;-53
2021/03/28 12:47:25;;;;;;;4.78;1.92;;;;;;;15.82;36.31;101877.41;4985761;28;20046;-51
2021/03/28 12:50:31;;;;;;;6.78;3.35;;;;;;;16.19;35.35;101881.69;4991139;28;20050;-52
2021/03/28 12:53:16;;;;;;;3.88;1.88;;;;;;;16.06;35.09;101872.78;4934038;28;20043;-53
2021/03/28 12:55:50;;;;;;;6.35;1.90;;;;;;;15.97;36.37;101875.16;4992148;28;20121;-53
2021/03/28 12:58:36;;;;;;;4.63;1.42;;;;;;;15.26;36.89;101877.72;4990218;28;20065;-53
2021/03/28 13:01:15;;;;;;;6.47;2.05;;;;;;;15.01;38.11;101881.34;4991247;28;20474;-49
2021/03/28 13:03:46;;;;;;;6.35;2.15;;;;;;;15.11;38.43;101883.34;4984553;28;20053;-54
2021/03/28 13:06:44;;;;;;;5.35;1.90;;;;;;;14.89;38.91;101881.06;4984246;28;20050;-52